createdAt,value
2019-05-19T04:00:36.550Z,988.16
2019-05-19T04:02:36.526Z,988.17
2019-05-19T04:04:36.502Z,988.07
2019-05-19T04:06:36.489Z,988.08
2019-05-19T04:08:36.468Z,988.09
2019-05-19T04:10:36.442Z,988.12
2019-05-19T04:12:36.422Z,988.17
2019-05-19T04:14:43.503Z,988.12
2019-05-19T04:16:36.405Z,988.11
2019-05-19T04:18:36.355Z,988.13
2019-05-19T04:20:36.324Z,988.10
2019-05-19T04:22:36.320Z,988.13
2019-05-19T04:24:36.284Z,988.13
2019-05-19T04:26:36.279Z,988.09
2019-05-19T04:28:36.266Z,988.09
2019-05-19T04:30:36.225Z,988.10
2019-05-19T04:32:36.222Z,988.10
2019-05-19T04:34:36.198Z,988.06
2019-05-19T04:36:36.156Z,988.08
2019-05-19T04:38:36.160Z,988.08
2019-05-19T04:40:36.137Z,988.05
2019-05-19T04:42:36.094Z,988.07
2019-05-19T04:44:36.090Z,988.04
2019-05-19T04:46:36.078Z,988.06
2019-05-19T04:48:36.026Z,988.05
2019-05-19T04:50:36.019Z,988.02
2019-05-19T04:52:35.999Z,988.02
2019-05-19T04:54:35.970Z,988.12
2019-05-19T04:56:35.960Z,988.07
2019-05-19T04:58:35.952Z,988.10
2019-05-19T05:00:35.909Z,988.15
2019-05-19T05:02:35.885Z,988.09
2019-05-19T05:04:35.885Z,988.11
2019-05-19T05:06:35.857Z,988.12
2019-05-19T05:08:35.804Z,988.11
2019-05-19T05:10:35.802Z,988.12
2019-05-19T05:12:35.791Z,988.04
2019-05-19T05:14:35.778Z,988.05
2019-05-19T05:16:35.714Z,988.02
2019-05-19T05:18:35.726Z,988.09
2019-05-19T05:20:35.676Z,988.01
2019-05-19T05:22:35.651Z,988.06
2019-05-19T05:24:35.649Z,987.96
2019-05-19T05:26:35.638Z,988.00
2019-05-19T05:28:35.602Z,988.04
2019-05-19T05:30:35.568Z,988.06
2019-05-19T05:32:35.566Z,987.90
2019-05-19T05:34:35.551Z,987.98
2019-05-19T05:36:35.534Z,987.93
2019-05-19T05:38:35.478Z,987.99
2019-05-19T05:40:35.480Z,988.03
2019-05-19T05:42:35.475Z,988.03
2019-05-19T05:44:35.414Z,988.01
2019-05-19T05:46:35.426Z,988.00
2019-05-19T05:48:35.403Z,988.02
2019-05-19T05:50:35.362Z,988.09
2019-05-19T05:52:38.543Z,987.94
2019-05-19T05:54:35.315Z,987.97
2019-05-19T05:56:35.303Z,988.03
2019-05-19T05:58:35.268Z,988.08
2019-05-19T06:00:35.234Z,988.06
2019-05-19T06:02:35.230Z,988.11
2019-05-19T06:04:35.192Z,988.14
2019-05-19T06:06:35.178Z,988.13
2019-05-19T06:08:35.219Z,988.15
2019-05-19T06:10:35.133Z,988.19
2019-05-19T06:12:35.130Z,988.15
2019-05-19T06:14:35.121Z,988.17
2019-05-19T06:16:35.060Z,988.17
2019-05-19T06:18:35.045Z,988.15
2019-05-19T06:20:35.054Z,988.16
2019-05-19T06:22:34.999Z,988.17
2019-05-19T06:24:35.011Z,988.20
2019-05-19T06:26:34.987Z,988.17
2019-05-19T06:28:34.930Z,988.24
2019-05-19T06:30:34.931Z,988.22
2019-05-19T06:32:34.934Z,988.15
2019-05-19T06:34:34.865Z,988.26
2019-05-19T06:36:34.861Z,988.28
2019-05-19T06:38:35.040Z,988.36
2019-05-19T06:40:34.798Z,988.35
2019-05-19T06:42:34.817Z,988.26
2019-05-19T06:44:34.795Z,988.33
2019-05-19T06:46:34.747Z,988.29
2019-05-19T06:48:34.717Z,988.35
2019-05-19T06:50:34.732Z,988.39
2019-05-19T06:52:34.679Z,988.35
2019-05-19T06:54:34.674Z,988.36
2019-05-19T06:56:34.632Z,988.28
2019-05-19T06:58:34.609Z,988.28
2019-05-19T07:00:34.597Z,988.37
2019-05-19T07:02:34.570Z,988.37
2019-05-19T07:04:34.551Z,988.39
2019-05-19T07:06:34.555Z,988.39
2019-05-19T07:08:34.520Z,988.37
2019-05-19T07:10:34.477Z,988.44
2019-05-19T07:12:34.472Z,988.44
2019-05-19T07:14:34.502Z,988.42
2019-05-19T07:16:34.403Z,988.34
2019-05-19T07:18:34.393Z,988.38
2019-05-19T07:20:34.375Z,988.44
2019-05-19T07:22:37.453Z,988.44
2019-05-19T07:24:34.325Z,988.44
2019-05-19T07:26:34.311Z,988.44
2019-05-19T07:28:34.290Z,988.36
2019-05-19T07:30:34.247Z,988.38
2019-05-19T07:32:34.249Z,988.41
2019-05-19T07:34:34.231Z,988.36
2019-05-19T07:36:34.191Z,988.38
2019-05-19T07:38:34.183Z,988.35
2019-05-19T07:40:34.171Z,988.39
2019-05-19T07:42:34.123Z,988.36
2019-05-19T07:44:34.104Z,988.36
2019-05-19T07:46:34.102Z,988.26
2019-05-19T07:48:34.075Z,988.33
2019-05-19T07:50:37.697Z,988.33
2019-05-19T07:52:34.032Z,988.28
2019-05-19T07:54:34.070Z,988.28
2019-05-19T07:56:33.967Z,988.30
2019-05-19T07:58:33.952Z,988.30
2019-05-19T08:00:33.940Z,988.26
2019-05-19T08:02:33.920Z,988.29
2019-05-19T08:04:33.897Z,988.28
2019-05-19T08:06:33.885Z,988.26
2019-05-19T08:08:33.839Z,988.33
2019-05-19T08:10:33.815Z,988.27
2019-05-19T08:12:33.830Z,988.22
2019-05-19T08:14:33.780Z,988.27
2019-05-19T08:16:33.761Z,988.23
2019-05-19T08:18:33.745Z,988.20
2019-05-19T08:20:33.718Z,988.25
2019-05-19T08:22:33.694Z,988.14
2019-05-19T08:24:33.684Z,988.12
2019-05-19T08:26:33.645Z,988.20
2019-05-19T08:28:33.628Z,988.13
2019-05-19T08:30:33.624Z,988.17
2019-05-19T08:32:33.582Z,988.19
2019-05-19T08:34:33.590Z,988.28
2019-05-19T08:36:33.548Z,988.27
2019-05-19T08:38:33.582Z,988.26
2019-05-19T08:40:33.511Z,988.24
2019-05-19T08:42:33.475Z,988.20
2019-05-19T08:44:33.449Z,988.15
2019-05-19T08:46:33.476Z,988.05
2019-05-19T08:48:33.406Z,988.14
2019-05-19T08:50:33.394Z,988.01
2019-05-19T08:52:33.378Z,988.13
2019-05-19T08:54:33.354Z,988.20
2019-05-19T08:56:33.343Z,988.18
2019-05-19T08:58:33.328Z,988.11
2019-05-19T09:00:37.634Z,988.09
2019-05-19T09:02:34.267Z,988.04
2019-05-19T09:04:33.259Z,988.06
2019-05-19T09:06:33.214Z,988.09
2019-05-19T09:08:33.190Z,988.05
2019-05-19T09:10:33.191Z,988.03
2019-05-19T09:12:33.173Z,988.15
2019-05-19T09:14:33.147Z,988.03
2019-05-19T09:16:33.127Z,988.01
2019-05-19T09:18:33.092Z,987.94
2019-05-19T09:20:33.089Z,988.04
2019-05-19T09:22:33.052Z,987.96
2019-05-19T09:24:33.017Z,988.00
2019-05-19T09:26:33.008Z,988.00
2019-05-19T09:28:32.980Z,987.92
2019-05-19T09:30:32.954Z,987.94
2019-05-19T09:32:32.953Z,987.96
2019-05-19T09:34:32.926Z,987.92
2019-05-19T09:36:32.893Z,987.98
2019-05-19T09:38:32.932Z,988.01
2019-05-19T09:40:32.858Z,987.88
2019-05-19T09:42:32.839Z,987.86
2019-05-19T09:44:32.826Z,987.83
2019-05-19T09:46:32.785Z,987.79
2019-05-19T09:48:32.805Z,987.70
2019-05-19T09:50:32.742Z,987.78
2019-05-19T09:52:32.711Z,987.78
2019-05-19T09:54:44.007Z,987.79
2019-05-19T09:56:33.672Z,987.74
2019-05-19T09:58:32.651Z,987.77
2019-05-19T10:00:32.643Z,987.73
2019-05-19T10:02:32.618Z,987.70
2019-05-19T10:04:32.585Z,987.68
2019-05-19T10:06:32.559Z,987.66
2019-05-19T10:08:32.589Z,987.67
2019-05-19T10:10:32.581Z,987.60
2019-05-19T10:12:32.495Z,987.63
2019-05-19T10:14:32.493Z,987.63
2019-05-19T10:16:32.472Z,987.65
2019-05-19T10:18:32.448Z,987.65
2019-05-19T10:20:32.425Z,987.59
2019-05-19T10:22:32.729Z,987.60
2019-05-19T10:24:32.412Z,987.61
2019-05-19T10:26:32.347Z,987.55
2019-05-19T10:28:32.328Z,987.58
2019-05-19T10:30:32.342Z,987.51
2019-05-19T10:32:32.284Z,987.45
2019-05-19T10:34:32.268Z,987.40
2019-05-19T10:36:32.258Z,987.40
2019-05-19T10:38:32.226Z,987.27
2019-05-19T10:40:32.213Z,987.29
2019-05-19T10:42:32.197Z,987.38
2019-05-19T10:44:32.229Z,987.34
2019-05-19T10:46:32.141Z,987.32
2019-05-19T10:48:32.178Z,987.22
2019-05-19T10:50:32.096Z,987.21
2019-05-19T10:52:32.252Z,987.19
2019-05-19T10:54:32.202Z,987.25
2019-05-19T10:56:32.146Z,987.18
2019-05-19T10:58:32.216Z,987.20
2019-05-19T11:00:32.066Z,987.28
2019-05-19T11:02:32.055Z,987.30
2019-05-19T11:04:31.978Z,987.30
2019-05-19T11:06:31.932Z,987.22
2019-05-19T11:08:31.923Z,987.22
2019-05-19T11:10:31.895Z,987.09
2019-05-19T11:12:31.873Z,987.18
2019-05-19T11:14:31.874Z,987.14
2019-05-19T11:16:31.831Z,987.23
2019-05-19T11:18:31.811Z,987.13
2019-05-19T11:20:31.794Z,987.12
2019-05-19T11:22:31.761Z,987.14
2019-05-19T11:24:31.797Z,987.07
2019-05-19T11:26:31.717Z,986.94
2019-05-19T11:28:31.715Z,986.95
2019-05-19T11:30:31.690Z,986.99
2019-05-19T11:32:31.655Z,986.96
2019-05-19T11:34:31.656Z,987.02
2019-05-19T11:36:31.631Z,987.03
2019-05-19T11:38:31.631Z,987.03
2019-05-19T11:40:31.577Z,986.94
2019-05-19T11:42:31.558Z,986.92
2019-05-19T11:44:31.538Z,986.91
2019-05-19T11:46:31.533Z,986.96
2019-05-19T11:48:31.548Z,987.14
2019-05-19T11:50:31.469Z,987.04
2019-05-19T11:52:31.459Z,987.10
2019-05-19T11:54:31.426Z,987.05
2019-05-19T11:56:31.436Z,987.09
2019-05-19T11:58:31.391Z,987.08
2019-05-19T12:00:31.372Z,987.08
2019-05-19T12:02:31.351Z,987.07
2019-05-19T12:04:31.400Z,987.13
2019-05-19T12:06:39.297Z,987.06
2019-05-19T12:08:32.295Z,987.12
2019-05-19T12:10:31.255Z,987.12
2019-05-19T12:12:31.329Z,986.98
2019-05-19T12:14:31.232Z,987.03
2019-05-19T12:16:31.195Z,986.99
2019-05-19T12:18:31.181Z,986.96
2019-05-19T12:20:31.179Z,986.95
2019-05-19T12:22:31.132Z,986.88
2019-05-19T12:24:31.142Z,986.93
2019-05-19T12:26:34.571Z,986.92
2019-05-19T12:28:31.094Z,986.90
2019-05-19T12:30:31.053Z,986.95
2019-05-19T12:32:31.044Z,986.90
2019-05-19T12:34:31.005Z,986.93
2019-05-19T12:36:30.983Z,986.95
2019-05-19T12:38:30.979Z,986.99
2019-05-19T12:40:30.960Z,987.00
2019-05-19T12:42:30.919Z,987.04
2019-05-19T12:44:30.895Z,986.99
2019-05-19T12:46:30.933Z,987.06
2019-05-19T12:48:30.903Z,987.11
2019-05-19T12:50:30.837Z,987.03
2019-05-19T12:52:30.834Z,987.08
2019-05-19T12:54:30.805Z,987.04
2019-05-19T12:56:39.001Z,987.08
2019-05-19T12:58:31.753Z,987.19
2019-05-19T13:00:30.726Z,987.11
2019-05-19T13:02:30.712Z,987.17
2019-05-19T13:04:30.721Z,987.19
2019-05-19T13:06:30.659Z,987.13
2019-05-19T13:08:30.651Z,987.26
2019-05-19T13:10:30.717Z,987.23
2019-05-19T13:12:30.609Z,987.33
2019-05-19T13:14:30.584Z,987.39
2019-05-19T13:16:30.575Z,987.55
2019-05-19T13:18:30.549Z,987.58
2019-05-19T13:20:30.534Z,987.70
2019-05-19T13:22:30.484Z,987.72
2019-05-19T13:24:30.473Z,987.78
2019-05-19T13:26:30.481Z,987.90
2019-05-19T13:28:30.419Z,987.98
2019-05-19T13:30:30.410Z,988.03
2019-05-19T13:32:30.383Z,987.99
2019-05-19T13:34:30.351Z,988.04
2019-05-19T13:36:30.366Z,988.11
2019-05-19T13:38:30.322Z,988.17
2019-05-19T13:40:30.296Z,988.15
2019-05-19T13:42:30.275Z,988.19
2019-05-19T13:44:30.263Z,988.29
2019-05-19T13:46:30.220Z,988.20
2019-05-19T13:48:30.193Z,988.26
2019-05-19T13:50:30.201Z,988.20
2019-05-19T13:52:30.169Z,988.22
2019-05-19T13:54:30.227Z,988.24
2019-05-19T13:56:30.143Z,988.17
2019-05-19T13:58:30.098Z,988.14
2019-05-19T14:00:30.075Z,988.08
2019-05-19T14:02:30.043Z,988.06
2019-05-19T14:04:30.125Z,988.16
2019-05-19T14:06:30.010Z,988.06
2019-05-19T14:08:30.027Z,988.13
2019-05-19T14:10:37.001Z,988.01
2019-05-19T14:12:29.936Z,988.06
2019-05-19T14:14:29.924Z,988.04
2019-05-19T14:16:29.899Z,987.95
2019-05-19T14:18:29.886Z,987.82
2019-05-19T14:20:29.886Z,987.69
2019-05-19T14:22:29.863Z,987.71
2019-05-19T14:24:29.839Z,987.71
2019-05-19T14:26:29.790Z,987.61
2019-05-19T14:28:29.780Z,987.68
2019-05-19T14:30:29.773Z,987.74
2019-05-19T14:32:29.736Z,987.78
2019-05-19T14:34:29.729Z,987.78
2019-05-19T14:36:29.680Z,987.85
2019-05-19T14:38:29.698Z,987.95
2019-05-19T14:40:29.698Z,988.05
2019-05-19T14:42:29.629Z,988.03
2019-05-19T14:44:29.598Z,988.02
2019-05-19T14:46:29.587Z,988.00
2019-05-19T14:48:29.551Z,988.04
2019-05-19T14:50:29.592Z,988.06
2019-05-19T14:52:29.517Z,988.14
2019-05-19T14:54:29.544Z,988.12
2019-05-19T14:56:29.470Z,988.00
2019-05-19T14:58:29.446Z,988.05
2019-05-19T15:00:29.434Z,988.07
2019-05-19T15:02:29.412Z,988.05
2019-05-19T15:04:29.384Z,988.13
2019-05-19T15:06:29.370Z,988.03
2019-05-19T15:08:29.338Z,988.00
2019-05-19T15:10:29.325Z,987.99
2019-05-19T15:12:29.311Z,987.91
2019-05-19T15:14:29.285Z,987.88
2019-05-19T15:16:29.248Z,987.87
2019-05-19T15:18:29.248Z,987.85
2019-05-19T15:20:29.209Z,987.77
2019-05-19T15:22:29.196Z,987.75
2019-05-19T15:24:29.171Z,987.70
2019-05-19T15:26:29.134Z,987.74
2019-05-19T15:28:29.130Z,987.68
2019-05-19T15:30:29.104Z,987.73
2019-05-19T15:32:29.076Z,987.67
2019-05-19T15:34:29.113Z,987.69
2019-05-19T15:36:29.039Z,987.66
2019-05-19T15:38:29.030Z,987.76
2019-05-19T15:40:29.020Z,987.73
2019-05-19T15:42:28.980Z,987.75
2019-05-19T15:44:28.948Z,987.78
2019-05-19T15:46:28.944Z,987.69
2019-05-19T15:48:29.088Z,987.71
2019-05-19T15:50:29.069Z,987.63
2019-05-19T15:52:29.005Z,987.58
2019-05-19T15:54:29.053Z,987.53
2019-05-19T15:56:29.011Z,987.45
2019-05-19T15:58:28.944Z,987.44
2019-05-19T16:00:28.925Z,987.38
2019-05-19T16:02:28.794Z,987.37
2019-05-19T16:04:28.745Z,987.38
2019-05-19T16:06:28.983Z,987.37
2019-05-19T16:08:50.383Z,987.27
2019-05-19T16:10:28.667Z,987.23
2019-05-19T16:12:28.635Z,987.21
2019-05-19T16:14:28.630Z,987.27
2019-05-19T16:16:28.624Z,987.18
2019-05-19T16:18:28.567Z,987.07
2019-05-19T16:20:28.593Z,987.04
2019-05-19T16:22:28.576Z,987.01
2019-05-19T16:24:28.528Z,987.06
2019-05-19T16:26:28.488Z,986.97
2019-05-19T16:28:30.615Z,986.98
2019-05-19T16:30:28.455Z,986.94
2019-05-19T16:32:28.410Z,986.90
2019-05-19T16:34:43.139Z,986.86
2019-05-19T16:36:30.331Z,986.90
2019-05-19T16:38:28.582Z,986.90
2019-05-19T16:40:28.342Z,986.96
2019-05-19T16:42:28.305Z,987.00
2019-05-19T16:44:28.289Z,987.05
2019-05-19T16:46:28.268Z,986.99
2019-05-19T16:48:28.242Z,987.05
2019-05-19T16:50:28.229Z,987.02
2019-05-19T16:52:28.259Z,987.03
2019-05-19T16:54:28.178Z,987.02
2019-05-19T16:56:28.168Z,987.08
2019-05-19T16:58:28.163Z,986.98
2019-05-19T17:00:28.105Z,987.03
2019-05-19T17:02:28.138Z,987.01
2019-05-19T17:04:28.104Z,986.99
2019-05-19T17:06:28.057Z,986.96
2019-05-19T17:08:28.017Z,986.90
2019-05-19T17:10:28.031Z,986.95
2019-05-19T17:12:27.976Z,986.93
2019-05-19T17:14:27.954Z,987.03
2019-05-19T17:16:27.939Z,987.07
2019-05-19T17:18:27.924Z,986.96
2019-05-19T17:20:30.918Z,986.94
2019-05-19T17:22:27.892Z,987.02
2019-05-19T17:24:27.854Z,987.00
2019-05-19T17:26:27.829Z,987.11
2019-05-19T17:28:27.811Z,987.17
2019-05-19T17:30:27.797Z,987.20
2019-05-19T17:32:27.760Z,987.23
2019-05-19T17:34:27.741Z,987.27
2019-05-19T17:36:27.712Z,987.19
2019-05-19T17:38:30.879Z,987.18
2019-05-19T17:40:27.671Z,987.25
2019-05-19T17:42:27.664Z,987.23
2019-05-19T17:44:27.646Z,987.29
2019-05-19T17:46:27.621Z,987.31
2019-05-19T17:48:34.306Z,987.28
2019-05-19T17:50:42.300Z,987.28
2019-05-19T17:52:27.570Z,987.29
2019-05-19T17:54:27.511Z,987.27
2019-05-19T17:56:27.509Z,987.29
2019-05-19T17:58:27.501Z,987.36
2019-05-19T18:00:27.442Z,987.36
2019-05-19T18:02:27.437Z,987.41
2019-05-19T18:04:27.422Z,987.49
2019-05-19T18:06:29.667Z,987.45
2019-05-19T18:08:27.409Z,987.47
2019-05-19T18:10:27.386Z,987.51
2019-05-19T18:12:27.323Z,987.57
2019-05-19T18:14:27.310Z,987.60
2019-05-19T18:16:27.327Z,987.63
2019-05-19T18:18:27.250Z,987.70
2019-05-19T18:20:27.240Z,987.65
2019-05-19T18:22:27.230Z,987.64
2019-05-19T18:24:27.191Z,987.74
2019-05-19T18:26:27.187Z,987.69
2019-05-19T18:28:27.160Z,987.82
2019-05-19T18:30:27.125Z,987.77
2019-05-19T18:32:27.120Z,987.86
2019-05-19T18:34:27.122Z,987.93
2019-05-19T18:36:27.077Z,987.96
2019-05-19T18:38:27.064Z,988.03
2019-05-19T18:40:27.013Z,987.98
2019-05-19T18:42:27.025Z,988.04
2019-05-19T18:44:26.995Z,988.02
2019-05-19T18:46:26.956Z,987.99
2019-05-19T18:48:26.938Z,988.06
2019-05-19T18:50:26.930Z,988.05
2019-05-19T18:52:26.898Z,988.06
2019-05-19T18:54:26.865Z,988.12
2019-05-19T18:56:26.869Z,988.15
2019-05-19T18:58:26.919Z,988.10
2019-05-19T19:00:26.809Z,988.07
2019-05-19T19:02:26.818Z,988.19
2019-05-19T19:04:26.755Z,988.18
2019-05-19T19:06:26.766Z,988.23
2019-05-19T19:08:26.714Z,988.19
2019-05-19T19:10:26.705Z,988.19
2019-05-19T19:12:26.691Z,988.21
2019-05-19T19:14:27.714Z,988.24
2019-05-19T19:16:26.642Z,988.23
2019-05-19T19:18:26.625Z,988.22
2019-05-19T19:20:26.592Z,988.19
2019-05-19T19:22:26.574Z,988.14
2019-05-19T19:24:26.562Z,988.26
2019-05-19T19:26:26.553Z,988.23
2019-05-19T19:28:26.510Z,988.23
2019-05-19T19:30:26.724Z,988.25
2019-05-19T19:32:26.460Z,988.26
2019-05-19T19:34:26.455Z,988.32
2019-05-19T19:36:26.434Z,988.28
2019-05-19T19:38:26.416Z,988.29
2019-05-19T19:40:41.290Z,988.30
2019-05-19T19:42:26.361Z,988.27
2019-05-19T19:44:26.348Z,988.31
2019-05-19T19:46:26.317Z,988.29
2019-05-19T19:48:27.385Z,988.39
2019-05-19T19:50:32.343Z,988.46
2019-05-19T19:52:27.340Z,988.48
2019-05-19T19:54:26.779Z,988.47
2019-05-19T19:56:26.206Z,988.48
2019-05-19T19:58:26.188Z,988.51
2019-05-19T20:00:26.164Z,988.51
2019-05-19T20:02:26.135Z,988.51
2019-05-19T20:04:26.140Z,988.53
2019-05-19T20:06:26.116Z,988.48
2019-05-19T20:08:26.079Z,988.65
2019-05-19T20:10:26.069Z,988.68
2019-05-19T20:12:26.052Z,988.69
2019-05-19T20:14:26.029Z,988.73
2019-05-19T20:16:26.014Z,988.75
2019-05-19T20:18:25.963Z,988.87
2019-05-19T20:20:25.966Z,988.86
2019-05-19T20:22:25.926Z,988.86
2019-05-19T20:24:25.901Z,988.84
2019-05-19T20:26:25.881Z,988.82
2019-05-19T20:28:25.864Z,988.83
2019-05-19T20:30:35.119Z,988.91
2019-05-19T20:32:26.833Z,988.95
2019-05-19T20:34:25.835Z,988.93
2019-05-19T20:36:25.790Z,988.85
2019-05-19T20:38:25.753Z,988.86
2019-05-19T20:40:25.726Z,988.81
2019-05-19T20:42:25.739Z,988.91
2019-05-19T20:44:25.678Z,988.86
2019-05-19T20:46:25.663Z,988.84
2019-05-19T20:48:25.643Z,988.80
2019-05-19T20:50:25.639Z,988.76
2019-05-19T20:52:25.618Z,988.81
2019-05-19T20:54:49.813Z,988.71
2019-05-19T20:56:32.275Z,988.71
2019-05-19T20:58:25.547Z,988.71
2019-05-19T21:00:25.523Z,988.72
2019-05-19T21:02:25.480Z,988.72
2019-05-19T21:04:25.470Z,988.76
2019-05-19T21:06:25.444Z,988.74
2019-05-19T21:08:25.447Z,988.69
2019-05-19T21:10:25.410Z,988.68
2019-05-19T21:12:25.375Z,988.73
2019-05-19T21:14:25.382Z,988.71
2019-05-19T21:16:25.332Z,988.71
2019-05-19T21:18:25.379Z,988.73
2019-05-19T21:20:25.307Z,988.79
2019-05-19T21:22:25.285Z,988.79
2019-05-19T21:24:25.246Z,988.77
2019-05-19T21:26:25.240Z,988.73
2019-05-19T21:28:25.329Z,988.78
2019-05-19T21:30:25.186Z,988.68
2019-05-19T21:32:25.170Z,988.67
2019-05-19T21:34:25.155Z,988.65
2019-05-19T21:36:25.133Z,988.67
2019-05-19T21:38:25.086Z,988.61
2019-05-19T21:40:29.333Z,988.66
2019-05-19T21:42:25.056Z,988.62
2019-05-19T21:44:25.026Z,988.66
2019-05-19T21:46:25.006Z,988.66
2019-05-19T21:48:25.022Z,988.70
2019-05-19T21:50:24.955Z,988.66
2019-05-19T21:52:24.949Z,988.61
2019-05-19T21:54:24.945Z,988.65
2019-05-19T21:56:24.894Z,988.65
2019-05-19T21:58:24.889Z,988.64
2019-05-19T22:00:24.888Z,988.67
2019-05-19T22:02:24.841Z,988.73
2019-05-19T22:04:24.826Z,988.80
2019-05-19T22:06:24.785Z,988.77
2019-05-19T22:08:24.790Z,988.86
2019-05-19T22:10:24.761Z,988.88
2019-05-19T22:12:24.734Z,988.90
2019-05-19T22:14:24.697Z,988.88
2019-05-19T22:16:24.695Z,988.86
2019-05-19T22:18:24.695Z,988.91
2019-05-19T22:20:24.653Z,988.94
2019-05-19T22:22:24.661Z,988.91
2019-05-19T22:24:24.609Z,988.85
2019-05-19T22:26:24.573Z,988.93
2019-05-19T22:28:24.556Z,988.91
2019-05-19T22:30:24.530Z,988.90
2019-05-19T22:32:24.502Z,988.86
2019-05-19T22:34:24.551Z,988.81
2019-05-19T22:36:24.481Z,988.81
2019-05-19T22:38:24.478Z,988.92
2019-05-19T22:40:24.427Z,988.83
2019-05-19T22:42:24.394Z,988.77
2019-05-19T22:44:24.398Z,988.71
2019-05-19T22:46:24.384Z,988.73
2019-05-19T22:48:24.335Z,988.75
2019-05-19T22:50:24.450Z,988.69
2019-05-19T22:52:24.301Z,988.63
2019-05-19T22:54:24.284Z,988.62
2019-05-19T22:56:24.257Z,988.57
2019-05-19T22:58:24.227Z,988.52
2019-05-19T23:00:24.228Z,988.51
2019-05-19T23:02:24.182Z,988.50
2019-05-19T23:04:24.186Z,988.47
2019-05-19T23:06:24.147Z,988.48
2019-05-19T23:08:24.151Z,988.47
2019-05-19T23:10:24.128Z,988.46
2019-05-19T23:12:24.095Z,988.49
2019-05-19T23:14:24.050Z,988.55
2019-05-19T23:16:24.087Z,988.42
2019-05-19T23:18:24.017Z,988.50
2019-05-19T23:20:24.003Z,988.45
2019-05-19T23:22:23.962Z,988.53
2019-05-19T23:24:23.961Z,988.51
2019-05-19T23:26:23.920Z,988.51
2019-05-19T23:28:23.908Z,988.41
